Time;durP1;ratioP1;P1;durP2;ratioP2;P2;SDS_P1;SDS_P2;PMS_P1;PMS_P2;Temp;Humidity;BMP_temperature;BMP_pressure;BME280_temperature;BME280_humidity;BME280_pressure;Samples;Min_cycle;Max_cycle;Signal;HPM_P1;HPM_P2
2024/03/24 00:01:07;;;;;;;1.20;1.00;;;;;;;;;;6099403;23;20169;-83
2024/03/24 00:03:34;;;;;;;1.33;0.93;;;;;;;;;;6099015;23;20222;-80
2024/03/24 00:06:00;;;;;;;1.67;1.00;;;;;;;;;;6099183;23;20172;-82
2024/03/24 00:08:28;;;;;;;1.10;0.97;;;;;;;;;;6099158;23;20168;-82
2024/03/24 00:10:54;;;;;;;1.57;1.10;;;;;;;;;;6098927;23;20741;-80
2024/03/24 00:13:20;;;;;;;1.23;0.87;;;;;;;;;;6098921;23;20195;-82
2024/03/24 00:15:47;;;;;;;2.20;1.17;;;;;;;;;;6074998;23;20247;-82
2024/03/24 00:18:14;;;;;;;2.80;1.10;;;;;;;;;;6098992;23;20218;-81
2024/03/24 00:20:41;;;;;;;1.07;1.00;;;;;;;;;;6099883;23;20171;-81
2024/03/24 00:23:07;;;;;;;1.20;1.10;;;;;;;;;;6100863;23;20191;-80
2024/03/24 00:25:34;;;;;;;1.00;1.00;;;;;;;;;;6100944;23;20203;-83
2024/03/24 00:28:01;;;;;;;2.63;1.20;;;;;;;;;;6100850;23;20167;-80
2024/03/24 00:30:28;;;;;;;1.83;1.13;;;;;;;;;;6100448;23;20662;-81
2024/03/24 00:32:54;;;;;;;1.33;1.00;;;;;;;;;;6100522;23;20208;-80
2024/03/24 00:35:23;;;;;;;1.17;0.97;;;;;;;;;;6076796;23;20636;-83
2024/03/24 00:37:52;;;;;;;1.20;1.10;;;;;;;;;;6101592;23;20152;-81
2024/03/24 00:40:19;;;;;;;2.20;1.10;;;;;;;;;;6101302;23;20210;-82
2024/03/24 00:42:45;;;;;;;1.77;1.17;;;;;;;;;;6076878;23;20612;-81
2024/03/24 00:45:12;;;;;;;1.90;1.20;;;;;;;;;;6100658;23;20232;-80
2024/03/24 00:47:39;;;;;;;2.20;1.20;;;;;;;;;;6076810;23;20171;-80
2024/03/24 00:50:09;;;;;;;2.00;1.30;;;;;;;;;;6100658;23;20188;-83
2024/03/24 00:52:36;;;;;;;1.37;1.00;;;;;;;;;;6100789;23;20164;-82
2024/03/24 00:55:05;;;;;;;2.50;0.93;;;;;;;;;;6100887;23;20208;-81
2024/03/24 00:57:31;;;;;;;1.97;0.97;;;;;;;;;;6100219;23;20168;-81
2024/03/24 00:59:57;;;;;;;1.50;1.07;;;;;;;;;;6076379;23;20207;-80
2024/03/24 01:02:25;;;;;;;1.70;1.27;;;;;;;;;;6099372;23;20204;-83
2024/03/24 01:04:52;;;;;;;1.50;1.00;;;;;;;;;;6100449;23;20168;-81
2024/03/24 01:07:19;;;;;;;1.20;0.87;;;;;;;;;;6100430;23;20218;-80
2024/03/24 01:09:49;;;;;;;1.40;1.00;;;;;;;;;;6100385;23;20184;-81
2024/03/24 01:12:16;;;;;;;1.93;1.13;;;;;;;;;;6100007;23;20175;-80
2024/03/24 01:14:43;;;;;;;0.90;0.80;;;;;;;;;;6076976;23;20615;-83
2024/03/24 01:17:12;;;;;;;1.07;0.80;;;;;;;;;;6099984;23;20178;-82
2024/03/24 01:19:40;;;;;;;1.63;0.90;;;;;;;;;;6100647;23;20184;-82
2024/03/24 01:22:06;;;;;;;1.73;1.00;;;;;;;;;;6099633;23;20249;-84
2024/03/24 01:24:32;;;;;;;1.33;1.00;;;;;;;;;;6100088;23;20169;-79
2024/03/24 01:26:58;;;;;;;1.13;0.90;;;;;;;;;;6099831;23;20180;-82
2024/03/24 01:29:25;;;;;;;1.57;0.83;;;;;;;;;;6099789;23;20189;-82
2024/03/24 01:31:51;;;;;;;1.97;0.90;;;;;;;;;;6094241;23;20200;-83
2024/03/24 01:34:17;;;;;;;1.67;0.87;;;;;;;;;;6047627;23;20484;-80
2024/03/24 01:36:43;;;;;;;1.37;1.10;;;;;;;;;;6095084;23;20174;-80
2024/03/24 01:39:09;;;;;;;1.77;1.00;;;;;;;;;;6095140;23;20243;-80
2024/03/24 01:41:35;;;;;;;1.07;0.90;;;;;;;;;;6071500;23;20175;-83
2024/03/24 01:44:02;;;;;;;1.43;1.00;;;;;;;;;;6067151;23;20204;-82
2024/03/24 01:46:29;;;;;;;3.47;1.50;;;;;;;;;;6070931;23;20172;-81
2024/03/24 01:48:55;;;;;;;1.87;1.47;;;;;;;;;;6094705;23;20188;-82
2024/03/24 01:51:22;;;;;;;2.80;1.60;;;;;;;;;;6094889;23;20164;-81
2024/03/24 01:53:49;;;;;;;1.97;1.60;;;;;;;;;;6094621;23;20214;-81
2024/03/24 01:56:16;;;;;;;2.40;1.60;;;;;;;;;;6094360;23;20165;-82
2024/03/24 01:58:42;;;;;;;1.67;1.57;;;;;;;;;;6094607;23;20223;-80
2024/03/24 02:01:10;;;;;;;1.60;1.50;;;;;;;;;;6095245;23;20193;-82
2024/03/24 02:03:36;;;;;;;2.73;1.90;;;;;;;;;;6070968;23;20164;-80
2024/03/24 02:06:06;;;;;;;2.80;2.00;;;;;;;;;;6094687;23;20165;-83
2024/03/24 02:08:32;;;;;;;2.03;1.70;;;;;;;;;;6070949;23;20203;-80
2024/03/24 02:10:58;;;;;;;2.10;1.90;;;;;;;;;;6094780;23;20250;-82
2024/03/24 02:13:24;;;;;;;1.90;1.50;;;;;;;;;;6094305;23;20176;-81
2024/03/24 02:15:52;;;;;;;2.37;1.60;;;;;;;;;;6094598;23;20170;-82
2024/03/24 02:18:18;;;;;;;2.57;1.47;;;;;;;;;;6070712;23;20248;-80
2024/03/24 02:20:44;;;;;;;1.50;1.40;;;;;;;;;;6070880;23;20236;-80
2024/03/24 02:23:10;;;;;;;1.13;1.00;;;;;;;;;;6094566;23;20169;-84
2024/03/24 02:25:37;;;;;;;1.53;1.07;;;;;;;;;;6094893;23;20169;-84
2024/03/24 02:28:02;;;;;;;1.70;1.00;;;;;;;;;;6094002;23;20168;-82
2024/03/24 02:30:29;;;;;;;1.70;0.90;;;;;;;;;;6093118;23;20710;-83
2024/03/24 02:32:55;;;;;;;1.50;0.80;;;;;;;;;;6094268;23;20220;-81
2024/03/24 02:35:23;;;;;;;1.50;0.90;;;;;;;;;;6094923;23;20170;-81
2024/03/24 02:37:50;;;;;;;1.40;1.10;;;;;;;;;;6094540;23;20187;-80
2024/03/24 02:40:19;;;;;;;1.47;1.00;;;;;;;;;;6070674;23;20259;-81
2024/03/24 02:42:45;;;;;;;1.40;0.93;;;;;;;;;;6070900;23;20191;-82
2024/03/24 02:45:12;;;;;;;1.03;0.80;;;;;;;;;;6094215;23;20272;-82
2024/03/24 02:47:38;;;;;;;1.30;1.10;;;;;;;;;;6094522;23;20164;-81
2024/03/24 02:50:06;;;;;;;1.33;0.70;;;;;;;;;;6094383;23;20188;-80
2024/03/24 02:52:35;;;;;;;1.43;0.80;;;;;;;;;;6118868;23;20214;-80
2024/03/24 02:55:01;;;;;;;1.30;0.90;;;;;;;;;;6094190;23;20251;-81
2024/03/24 02:57:30;;;;;;;1.40;1.10;;;;;;;;;;6094417;23;20195;-81
2024/03/24 02:59:57;;;;;;;1.33;0.93;;;;;;;;;;6094108;23;20718;-83
2024/03/24 03:02:24;;;;;;;1.77;0.83;;;;;;;;;;6094392;23;20171;-83
2024/03/24 03:04:50;;;;;;;2.23;1.00;;;;;;;;;;6070376;23;20648;-81
2024/03/24 03:07:18;;;;;;;1.03;0.90;;;;;;;;;;6094567;23;20160;-80
2024/03/24 03:09:44;;;;;;;1.37;1.10;;;;;;;;;;6094436;23;20192;-84
2024/03/24 03:12:16;;;;;;;1.17;0.90;;;;;;;;;;6094530;23;20192;-80
2024/03/24 03:14:42;;;;;;;1.23;0.90;;;;;;;;;;6070415;23;20172;-82
2024/03/24 03:17:08;;;;;;;1.57;1.00;;;;;;;;;;6070361;23;20670;-81
2024/03/24 03:19:35;;;;;;;1.40;0.83;;;;;;;;;;6094134;23;20168;-80
2024/03/24 03:22:01;;;;;;;1.90;1.00;;;;;;;;;;6094373;23;20188;-83
2024/03/24 03:24:27;;;;;;;0.90;0.80;;;;;;;;;;6094300;23;20613;-83
2024/03/24 03:26:53;;;;;;;2.67;0.80;;;;;;;;;;6094274;23;20247;-81
2024/03/24 03:29:20;;;;;;;2.37;1.10;;;;;;;;;;6069501;23;20204;-81
2024/03/24 03:31:46;;;;;;;2.00;0.80;;;;;;;;;;6093461;23;20272;-81
2024/03/24 03:34:14;;;;;;;0.80;0.80;;;;;;;;;;6070735;23;20228;-80
2024/03/24 03:36:41;;;;;;;1.83;1.03;;;;;;;;;;6070143;23;20177;-80
2024/03/24 03:39:07;;;;;;;1.37;0.80;;;;;;;;;;6093913;23;20212;-82
2024/03/24 03:41:33;;;;;;;1.30;0.90;;;;;;;;;;6118629;23;20176;-80
2024/03/24 03:44:02;;;;;;;1.70;0.90;;;;;;;;;;6045716;23;20171;-82
2024/03/24 03:46:28;;;;;;;1.80;0.90;;;;;;;;;;6070611;23;20239;-80
2024/03/24 03:48:54;;;;;;;2.97;0.90;;;;;;;;;;6093918;23;20168;-81
2024/03/24 03:51:29;;;;;;;1.27;1.00;;;;;;;;;;6094156;23;20180;-83
2024/03/24 03:53:58;;;;;;;0.93;0.70;;;;;;;;;;6094117;23;20195;-80
2024/03/24 03:56:27;;;;;;;0.87;0.67;;;;;;;;;;6095804;23;20161;-81
2024/03/24 03:58:53;;;;;;;1.27;0.70;;;;;;;;;;6096451;23;20173;-82
2024/03/24 04:01:20;;;;;;;1.47;0.77;;;;;;;;;;6095850;23;20177;-83
2024/03/24 04:03:46;;;;;;;1.30;0.87;;;;;;;;;;6094834;23;20522;-82
2024/03/24 04:06:12;;;;;;;1.23;0.80;;;;;;;;;;6096008;23;20556;-81
2024/03/24 04:08:39;;;;;;;1.83;0.90;;;;;;;;;;6096646;23;20161;-82
2024/03/24 04:11:07;;;;;;;2.07;0.70;;;;;;;;;;6096174;23;20206;-81
2024/03/24 04:13:33;;;;;;;0.60;0.60;;;;;;;;;;6095889;23;20646;-81
2024/03/24 04:15:59;;;;;;;1.70;0.80;;;;;;;;;;6096152;23;20165;-81
2024/03/24 04:18:25;;;;;;;2.43;1.07;;;;;;;;;;6120438;23;20215;-79
2024/03/24 04:20:52;;;;;;;0.77;0.77;;;;;;;;;;6096232;23;20203;-81
2024/03/24 04:23:24;;;;;;;1.80;0.70;;;;;;;;;;6095860;23;20165;-82
2024/03/24 04:25:55;;;;;;;0.97;0.70;;;;;;;;;;6072201;23;20169;-83
2024/03/24 04:28:25;;;;;;;0.87;0.60;;;;;;;;;;6095972;23;20146;-83
2024/03/24 04:30:51;;;;;;;1.27;0.83;;;;;;;;;;6095607;23;20264;-81
2024/03/24 04:33:18;;;;;;;1.83;1.00;;;;;;;;;;6095349;23;20225;-80
2024/03/24 04:35:47;;;;;;;1.43;0.70;;;;;;;;;;6095802;23;20698;-80
2024/03/24 04:38:14;;;;;;;1.00;0.70;;;;;;;;;;6095039;23;20552;-82
2024/03/24 04:40:40;;;;;;;0.90;0.70;;;;;;;;;;6095763;23;20181;-81
2024/03/24 04:43:07;;;;;;;1.17;0.73;;;;;;;;;;6095420;23;20201;-80
2024/03/24 04:45:34;;;;;;;1.23;0.90;;;;;;;;;;6095535;23;20215;-82
2024/03/24 04:48:00;;;;;;;2.47;1.03;;;;;;;;;;6095258;23;20679;-80
2024/03/24 04:50:28;;;;;;;0.63;0.63;;;;;;;;;;6095075;23;20213;-80
2024/03/24 04:52:55;;;;;;;1.37;0.80;;;;;;;;;;6095186;23;20199;-80
2024/03/24 04:55:21;;;;;;;1.77;0.77;;;;;;;;;;6095107;23;20256;-80
2024/03/24 04:57:52;;;;;;;1.20;1.10;;;;;;;;;;6095315;23;20243;-80
2024/03/24 05:00:19;;;;;;;1.00;0.80;;;;;;;;;;6119653;23;20180;-81
2024/03/24 05:02:48;;;;;;;2.63;0.80;;;;;;;;;;6095375;23;20219;-83
2024/03/24 05:05:15;;;;;;;2.03;0.90;;;;;;;;;;6070284;23;20169;-82
2024/03/24 05:07:47;;;;;;;1.73;0.70;;;;;;;;;;6070906;23;20164;-80
2024/03/24 05:10:17;;;;;;;0.80;0.50;;;;;;;;;;6095576;23;20730;-80
2024/03/24 05:12:47;;;;;;;1.37;0.80;;;;;;;;;;6047392;23;20516;-82
2024/03/24 05:15:14;;;;;;;0.73;0.57;;;;;;;;;;6120057;23;20172;-83
2024/03/24 05:17:42;;;;;;;3.03;0.80;;;;;;;;;;6095273;23;20169;-82
2024/03/24 05:20:09;;;;;;;1.40;0.67;;;;;;;;;;6071734;23;20172;-80
2024/03/24 05:22:36;;;;;;;1.07;0.70;;;;;;;;;;6095087;23;20188;-82
2024/03/24 05:25:04;;;;;;;0.80;0.70;;;;;;;;;;6095174;23;20184;-80
2024/03/24 05:27:30;;;;;;;1.33;0.70;;;;;;;;;;6095104;23;20175;-84
2024/03/24 05:29:57;;;;;;;2.10;0.90;;;;;;;;;;6071198;23;20241;-81
2024/03/24 05:32:27;;;;;;;0.80;0.70;;;;;;;;;;6095444;23;20204;-82
2024/03/24 05:34:53;;;;;;;1.10;0.60;;;;;;;;;;6119729;23;20253;-80
2024/03/24 05:37:19;;;;;;;1.17;0.70;;;;;;;;;;6119538;23;20187;-83
2024/03/24 05:39:48;;;;;;;1.10;0.60;;;;;;;;;;6095068;23;20185;-80
2024/03/24 05:42:14;;;;;;;0.87;0.70;;;;;;;;;;6095399;23;20623;-82
2024/03/24 05:44:44;;;;;;;2.20;0.77;;;;;;;;;;6071922;23;20187;-83
2024/03/24 05:47:10;;;;;;;1.13;0.70;;;;;;;;;;6071214;23;20562;-80
2024/03/24 05:49:36;;;;;;;1.60;0.80;;;;;;;;;;6095054;23;20180;-82
2024/03/24 05:52:04;;;;;;;1.90;0.63;;;;;;;;;;6047766;23;20255;-83
2024/03/24 05:54:31;;;;;;;1.23;0.73;;;;;;;;;;6094918;23;20630;-81
2024/03/24 05:56:57;;;;;;;1.50;0.70;;;;;;;;;;6119141;23;20164;-81
2024/03/24 05:59:24;;;;;;;1.63;0.83;;;;;;;;;;6094951;23;20189;-81
2024/03/24 06:01:53;;;;;;;1.50;0.80;;;;;;;;;;6119223;23;20200;-82
2024/03/24 06:04:19;;;;;;;2.57;1.00;;;;;;;;;;6094834;23;20168;-80
2024/03/24 06:06:46;;;;;;;1.13;0.60;;;;;;;;;;6094528;23;20203;-81
2024/03/24 06:09:13;;;;;;;0.83;0.53;;;;;;;;;;6094703;23;20212;-81
2024/03/24 06:11:39;;;;;;;0.90;0.67;;;;;;;;;;6070743;23;20168;-80
2024/03/24 06:14:06;;;;;;;2.37;0.80;;;;;;;;;;6094498;23;20765;-85
2024/03/24 06:16:32;;;;;;;1.53;0.90;;;;;;;;;;6094648;23;20199;-82
2024/03/24 06:18:58;;;;;;;1.87;0.80;;;;;;;;;;6070767;23;20260;-83
2024/03/24 06:21:25;;;;;;;1.13;0.60;;;;;;;;;;6094509;23;20195;-80
2024/03/24 06:23:54;;;;;;;1.53;0.60;;;;;;;;;;6071944;23;20171;-81
2024/03/24 06:26:20;;;;;;;1.40;0.70;;;;;;;;;;6070592;23;20200;-80
2024/03/24 06:28:46;;;;;;;1.17;0.70;;;;;;;;;;6094351;23;20161;-81
2024/03/24 06:31:13;;;;;;;0.87;0.73;;;;;;;;;;6094329;23;20195;-82
2024/03/24 06:33:39;;;;;;;0.90;0.60;;;;;;;;;;6118227;23;20278;-82
2024/03/24 06:36:06;;;;;;;1.87;0.63;;;;;;;;;;6094062;23;20179;-82
2024/03/24 06:38:32;;;;;;;2.67;1.00;;;;;;;;;;6069661;23;20651;-84
2024/03/24 06:41:00;;;;;;;1.47;0.67;;;;;;;;;;6093650;23;20715;-81
2024/03/24 06:43:44;;;;;;;1.80;0.90;;;;;;;;;;6093801;23;20206;-81
2024/03/24 06:46:11;;;;;;;1.63;0.60;;;;;;;;;;6118322;23;20236;-81
2024/03/24 06:48:38;;;;;;;1.20;0.50;;;;;;;;;;6094004;23;20164;-81
2024/03/24 06:51:07;;;;;;;0.47;0.43;;;;;;;;;;6094107;23;20223;-83
2024/03/24 06:53:53;;;;;;;1.63;0.70;;;;;;;;;;6074687;23;20230;-81
2024/03/24 06:56:20;;;;;;;1.33;0.90;;;;;;;;;;6094250;23;20168;-80
2024/03/24 06:58:46;;;;;;;0.90;0.50;;;;;;;;;;6094263;23;20172;-81
2024/03/24 07:01:15;;;;;;;1.10;0.50;;;;;;;;;;6094381;23;20188;-81
2024/03/24 07:03:43;;;;;;;2.27;0.60;;;;;;;;;;6070436;23;20494;-81
2024/03/24 07:06:09;;;;;;;1.77;0.80;;;;;;;;;;6069550;23;20172;-81
2024/03/24 07:08:36;;;;;;;1.27;0.60;;;;;;;;;;6069517;23;20226;-80
2024/03/24 07:11:02;;;;;;;1.47;0.60;;;;;;;;;;6070082;23;20185;-83
2024/03/24 07:13:28;;;;;;;1.27;0.53;;;;;;;;;;6093469;23;20219;-83
2024/03/24 07:15:57;;;;;;;0.93;0.57;;;;;;;;;;6093482;23;20172;-80
2024/03/24 07:18:23;;;;;;;1.00;0.70;;;;;;;;;;6092815;23;20164;-82
2024/03/24 07:20:59;;;;;;;1.17;0.53;;;;;;;;;;6093380;23;20247;-81
2024/03/24 07:23:29;;;;;;;0.93;0.60;;;;;;;;;;6069021;23;20499;-82
2024/03/24 07:25:55;;;;;;;1.07;0.60;;;;;;;;;;6093078;23;20180;-82
2024/03/24 07:28:21;;;;;;;2.10;0.50;;;;;;;;;;6092902;23;20191;-82
2024/03/24 07:30:51;;;;;;;1.20;0.53;;;;;;;;;;6116852;23;20203;-81
2024/03/24 07:33:19;;;;;;;2.10;0.40;;;;;;;;;;6092447;23;20224;-81
2024/03/24 07:35:45;;;;;;;2.07;0.40;;;;;;;;;;6092678;23;20172;-82
2024/03/24 07:38:12;;;;;;;1.77;0.60;;;;;;;;;;6067832;23;20176;-83
2024/03/24 07:40:38;;;;;;;1.33;0.70;;;;;;;;;;6066973;23;20222;-82
2024/03/24 07:43:04;;;;;;;1.00;0.40;;;;;;;;;;6090873;23;20164;-80
2024/03/24 07:45:31;;;;;;;1.87;0.50;;;;;;;;;;6092031;23;20168;-82
2024/03/24 07:47:57;;;;;;;1.63;0.57;;;;;;;;;;6116197;23;20199;-82
2024/03/24 07:50:23;;;;;;;1.33;0.70;;;;;;;;;;6114603;23;20180;-81
2024/03/24 07:52:49;;;;;;;1.20;0.50;;;;;;;;;;6091511;23;20303;-81
2024/03/24 07:55:15;;;;;;;1.73;0.30;;;;;;;;;;6091268;23;20255;-81
2024/03/24 07:57:44;;;;;;;0.93;0.40;;;;;;;;;;6091565;23;20252;-80
2024/03/24 08:00:14;;;;;;;0.93;0.50;;;;;;;;;;6091333;23;20161;-82
2024/03/24 08:02:41;;;;;;;0.60;0.40;;;;;;;;;;6091482;23;20267;-81
2024/03/24 08:05:07;;;;;;;1.13;0.50;;;;;;;;;;6091144;23;20227;-81
2024/03/24 08:07:33;;;;;;;1.57;0.80;;;;;;;;;;6091437;23;20255;-81
2024/03/24 08:09:59;;;;;;;0.80;0.40;;;;;;;;;;6091068;23;20188;-81
2024/03/24 08:12:25;;;;;;;0.50;0.30;;;;;;;;;;6091542;23;20168;-82
2024/03/24 08:14:51;;;;;;;3.33;1.30;;;;;;;;;;6043166;23;20211;-82
2024/03/24 08:17:17;;;;;;;0.87;0.40;;;;;;;;;;6087392;23;20164;-82
2024/03/24 08:19:43;;;;;;;1.07;0.50;;;;;;;;;;6089734;23;20180;-81
2024/03/24 08:22:09;;;;;;;2.10;0.40;;;;;;;;;;6043797;23;20196;-81
2024/03/24 08:24:39;;;;;;;2.37;0.40;;;;;;;;;;6091418;23;20260;-83
2024/03/24 08:27:10;;;;;;;0.97;0.40;;;;;;;;;;6091719;23;20168;-81
2024/03/24 08:29:36;;;;;;;0.33;0.30;;;;;;;;;;6091092;23;20181;-81
2024/03/24 08:32:02;;;;;;;3.17;0.50;;;;;;;;;;6091487;23;20197;-81
2024/03/24 08:34:28;;;;;;;1.37;0.90;;;;;;;;;;6067462;23;20236;-80
2024/03/24 08:36:54;;;;;;;1.57;0.80;;;;;;;;;;6091248;23;20177;-81
2024/03/24 08:39:20;;;;;;;1.97;0.80;;;;;;;;;;6090644;23;20506;-83
2024/03/24 08:41:46;;;;;;;0.90;0.57;;;;;;;;;;6090998;23;20224;-81
2024/03/24 08:44:12;;;;;;;0.70;0.40;;;;;;;;;;6092993;23;20646;-81
2024/03/24 08:46:39;;;;;;;1.20;0.70;;;;;;;;;;6116936;23;20624;-82
2024/03/24 08:49:05;;;;;;;1.10;0.40;;;;;;;;;;6090406;23;20169;-82
2024/03/24 08:51:31;;;;;;;2.00;0.83;;;;;;;;;;6088162;23;20170;-82
2024/03/24 08:53:58;;;;;;;2.93;1.40;;;;;;;;;;6065473;23;20201;-82
2024/03/24 08:56:23;;;;;;;1.17;0.80;;;;;;;;;;6091538;23;20248;-82
2024/03/24 08:58:49;;;;;;;1.40;0.50;;;;;;;;;;6069022;23;20183;-81
2024/03/24 09:01:16;;;;;;;1.70;0.63;;;;;;;;;;6117309;23;20201;-81
2024/03/24 09:03:42;;;;;;;1.40;0.43;;;;;;;;;;6092512;23;20516;-81
2024/03/24 09:06:08;;;;;;;1.00;0.40;;;;;;;;;;6092939;23;20216;-82
2024/03/24 09:08:35;;;;;;;1.13;0.53;;;;;;;;;;6093497;23;20167;-80
2024/03/24 09:11:01;;;;;;;0.60;0.40;;;;;;;;;;6092991;23;20299;-80
2024/03/24 09:13:27;;;;;;;0.43;0.30;;;;;;;;;;6093029;23;20244;-79
2024/03/24 09:15:54;;;;;;;0.47;0.30;;;;;;;;;;6092734;23;20249;-80
2024/03/24 09:18:20;;;;;;;1.27;0.53;;;;;;;;;;6117592;23;20165;-81
2024/03/24 09:20:46;;;;;;;0.90;0.40;;;;;;;;;;6069005;23;20185;-80
2024/03/24 09:23:11;;;;;;;1.37;0.60;;;;;;;;;;6092963;23;20169;-80
2024/03/24 09:25:38;;;;;;;1.03;0.30;;;;;;;;;;6092477;23;20213;-80
2024/03/24 09:28:04;;;;;;;0.80;0.50;;;;;;;;;;6068584;23;20190;-81
2024/03/24 09:30:30;;;;;;;0.90;0.50;;;;;;;;;;6116387;23;20421;-81
2024/03/24 09:32:56;;;;;;;0.57;0.50;;;;;;;;;;6092069;23;20207;-80
2024/03/24 09:35:22;;;;;;;0.77;0.50;;;;;;;;;;6092097;23;20194;-81
2024/03/24 09:37:48;;;;;;;0.57;0.30;;;;;;;;;;6092380;23;20197;-80
2024/03/24 09:40:14;;;;;;;0.77;0.37;;;;;;;;;;6068361;23;20829;-80
2024/03/24 09:42:41;;;;;;;0.43;0.40;;;;;;;;;;6092312;23;20305;-81
2024/03/24 09:45:09;;;;;;;1.00;0.40;;;;;;;;;;6068257;23;20178;-82
2024/03/24 09:47:36;;;;;;;1.17;0.40;;;;;;;;;;6092540;23;20188;-81
2024/03/24 09:50:03;;;;;;;1.13;0.30;;;;;;;;;;6092312;23;20213;-81
2024/03/24 09:52:30;;;;;;;0.17;0.17;;;;;;;;;;6092081;23;20171;-80
2024/03/24 09:54:57;;;;;;;0.27;0.20;;;;;;;;;;6092081;23;20177;-80
2024/03/24 09:57:24;;;;;;;3.60;0.30;;;;;;;;;;6092259;23;20186;-80
2024/03/24 09:59:53;;;;;;;2.30;0.30;;;;;;;;;;6091826;23;20246;-83
2024/03/24 10:02:19;;;;;;;2.10;0.33;;;;;;;;;;6116581;23;20175;-81
2024/03/24 10:04:45;;;;;;;0.80;0.30;;;;;;;;;;6091537;23;20596;-80
2024/03/24 10:07:11;;;;;;;0.30;0.30;;;;;;;;;;6092198;23;20196;-80
2024/03/24 10:09:36;;;;;;;0.20;0.20;;;;;;;;;;6092194;23;20638;-82
2024/03/24 10:12:12;;;;;;;0.63;0.20;;;;;;;;;;6092939;23;20247;-80
2024/03/24 10:14:39;;;;;;;0.27;0.20;;;;;;;;;;6092398;23;20194;-80
2024/03/24 10:17:11;;;;;;;0.70;0.20;;;;;;;;;;6092589;23;20192;-81
2024/03/24 10:19:37;;;;;;;1.73;0.23;;;;;;;;;;6116736;23;20154;-81
2024/03/24 10:22:04;;;;;;;0.40;0.27;;;;;;;;;;6092418;23;20621;-82
2024/03/24 10:24:30;;;;;;;1.40;0.10;;;;;;;;;;6092476;23;20165;-82
2024/03/24 10:26:58;;;;;;;0.73;0.20;;;;;;;;;;6092510;23;20622;-80
2024/03/24 10:29:25;;;;;;;0.40;0.40;;;;;;;;;;6092235;23;20166;-81
2024/03/24 10:31:51;;;;;;;0.83;0.47;;;;;;;;;;6091792;23;20191;-81
2024/03/24 10:34:17;;;;;;;0.40;0.30;;;;;;;;;;6116976;23;20175;-82
2024/03/24 10:36:43;;;;;;;0.83;0.30;;;;;;;;;;6068318;23;20199;-80
2024/03/24 10:39:09;;;;;;;0.30;0.20;;;;;;;;;;6068173;23;20202;-79
2024/03/24 10:41:35;;;;;;;0.70;0.20;;;;;;;;;;6092040;23;20173;-80
2024/03/24 10:44:02;;;;;;;0.10;0.10;;;;;;;;;;6092037;23;20207;-81
2024/03/24 10:46:31;;;;;;;0.80;0.30;;;;;;;;;;6092420;23;20171;-80
2024/03/24 10:48:58;;;;;;;0.20;0.20;;;;;;;;;;6092618;23;20161;-79
2024/03/24 10:51:28;;;;;;;0.13;0.10;;;;;;;;;;6092553;23;20198;-80
2024/03/24 10:53:57;;;;;;;0.57;0.37;;;;;;;;;;6069673;23;20145;-81
2024/03/24 10:56:22;;;;;;;0.73;0.27;;;;;;;;;;6093120;23;20193;-82
2024/03/24 10:58:50;;;;;;;0.20;0.20;;;;;;;;;;6070085;23;20240;-82
2024/03/24 11:01:16;;;;;;;0.60;0.20;;;;;;;;;;6117663;23;20169;-81
2024/03/24 11:03:45;;;;;;;0.37;0.20;;;;;;;;;;6069039;23;20233;-81
2024/03/24 11:06:11;;;;;;;0.40;0.23;;;;;;;;;;6092441;23;20176;-82
2024/03/24 11:08:37;;;;;;;1.07;0.70;;;;;;;;;;6092294;23;20175;-81
2024/03/24 11:11:03;;;;;;;1.30;0.90;;;;;;;;;;6091671;23;20183;-80
2024/03/24 11:13:30;;;;;;;1.67;1.17;;;;;;;;;;6091871;23;20174;-80
2024/03/24 11:15:56;;;;;;;0.20;0.20;;;;;;;;;;6091946;23;20612;-80
2024/03/24 11:18:23;;;;;;;0.37;0.20;;;;;;;;;;6092090;23;20173;-80
2024/03/24 11:20:52;;;;;;;0.10;0.10;;;;;;;;;;6091521;23;20177;-80
2024/03/24 11:23:19;;;;;;;0.30;0.30;;;;;;;;;;6091775;23;20631;-82
2024/03/24 11:25:54;;;;;;;1.33;0.40;;;;;;;;;;6115931;23;20170;-80
2024/03/24 11:28:39;;;;;;;5.67;0.50;;;;;;;;;;6091977;23;20218;-84
2024/03/24 11:31:15;;;;;;;0.20;0.17;;;;;;;;;;6068253;23;20195;-85
2024/03/24 11:34:01;;;;;;;2.70;0.30;;;;;;;;;;6092357;23;20220;-81
2024/03/24 11:36:28;;;;;;;1.43;0.20;;;;;;;;;;6092468;23;20158;-84
2024/03/24 11:38:54;;;;;;;2.10;0.30;;;;;;;;;;6092570;23;20298;-81
2024/03/24 11:41:24;;;;;;;0.27;0.20;;;;;;;;;;6092046;23;20204;-84
2024/03/24 11:43:53;;;;;;;1.67;0.10;;;;;;;;;;6068280;23;20199;-83
2024/03/24 11:46:19;;;;;;;0.80;0.20;;;;;;;;;;6068146;23;20185;-81
2024/03/24 11:48:47;;;;;;;0.23;0.10;;;;;;;;;;6092340;23;20243;-81
2024/03/24 11:51:14;;;;;;;0.30;0.13;;;;;;;;;;6067942;23;20188;-82
2024/03/24 11:53:41;;;;;;;0.53;0.17;;;;;;;;;;6044353;23;20671;-82
2024/03/24 11:56:07;;;;;;;0.33;0.20;;;;;;;;;;6092078;23;20168;-81
2024/03/24 11:58:33;;;;;;;0.10;0.10;;;;;;;;;;6092666;23;20156;-81
2024/03/24 12:01:00;;;;;;;0.23;0.20;;;;;;;;;;6044188;23;20219;-81
2024/03/24 12:03:26;;;;;;;0.63;0.20;;;;;;;;;;6092381;23;20172;-82
2024/03/24 12:05:54;;;;;;;0.83;0.20;;;;;;;;;;6092077;23;20164;-81
2024/03/24 12:08:21;;;;;;;0.30;0.30;;;;;;;;;;6092376;23;20169;-80
2024/03/24 12:10:58;;;;;;;0.50;0.50;;;;;;;;;;6092177;23;20235;-83
2024/03/24 12:13:29;;;;;;;0.20;0.20;;;;;;;;;;6092379;23;20172;-81
2024/03/24 12:15:55;;;;;;;0.13;0.13;;;;;;;;;;6092258;23;20168;-81
2024/03/24 12:18:21;;;;;;;0.67;0.10;;;;;;;;;;6070064;23;20172;-83
2024/03/24 12:20:48;;;;;;;0.10;0.10;;;;;;;;;;6069960;23;20172;-82
2024/03/24 12:23:14;;;;;;;0.20;0.20;;;;;;;;;;6092991;23;20502;-83
2024/03/24 12:25:48;;;;;;;0.20;0.10;;;;;;;;;;6091938;23;20161;-84
2024/03/24 12:28:19;;;;;;;0.10;0.10;;;;;;;;;;6092968;23;20295;-84
2024/03/24 12:30:49;;;;;;;0.20;0.20;;;;;;;;;;6093035;23;20216;-83
2024/03/24 12:33:17;;;;;;;0.10;0.10;;;;;;;;;;6093295;23;20235;-82
2024/03/24 12:35:46;;;;;;;0.10;0.10;;;;;;;;;;6093126;23;20679;-82
2024/03/24 12:38:12;;;;;;;0.10;0.10;;;;;;;;;;6045729;23;20260;-81
2024/03/24 12:40:51;;;;;;;0.10;0.10;;;;;;;;;;6116699;23;20179;-82
2024/03/24 12:43:19;;;;;;;0.20;0.20;;;;;;;;;;6093310;23;20145;-82
2024/03/24 12:45:52;;;;;;;0.10;0.10;;;;;;;;;;6093200;23;20212;-84
2024/03/24 12:48:19;;;;;;;0.37;0.10;;;;;;;;;;6092801;23;20247;-81
2024/03/24 12:50:46;;;;;;;0.40;0.20;;;;;;;;;;6091628;23;20223;-80
2024/03/24 12:53:42;;;;;;;0.20;0.20;;;;;;;;;;6091378;23;20173;-81
2024/03/24 12:56:11;;;;;;;1.90;0.20;;;;;;;;;;6050318;23;20256;-81
2024/03/24 12:58:41;;;;;;;0.40;0.20;;;;;;;;;;6091205;23;20172;-81
2024/03/24 13:01:08;;;;;;;0.27;0.20;;;;;;;;;;6115473;23;20175;-82
2024/03/24 13:03:45;;;;;;;4.90;0.30;;;;;;;;;;6091524;23;20269;-80
2024/03/24 13:06:16;;;;;;;0.20;0.20;;;;;;;;;;6069373;23;20264;-83
2024/03/24 13:08:45;;;;;;;0.20;0.20;;;;;;;;;;6093821;23;20199;-82
2024/03/24 13:11:16;;;;;;;0.67;0.27;;;;;;;;;;6093491;23;20192;-81
2024/03/24 13:13:44;;;;;;;0.37;0.20;;;;;;;;;;6093761;23;20219;-82
2024/03/24 13:16:16;;;;;;;0.20;0.20;;;;;;;;;;6117598;23;20199;-81
2024/03/24 13:19:11;;;;;;;0.40;0.30;;;;;;;;;;6070463;23;20215;-80
2024/03/24 13:21:43;;;;;;;0.30;0.30;;;;;;;;;;6068816;23;20176;-82
2024/03/24 13:24:11;;;;;;;0.20;0.20;;;;;;;;;;6094044;23;20247;-80
2024/03/24 13:26:39;;;;;;;0.27;0.20;;;;;;;;;;6093609;23;20312;-82
2024/03/24 13:29:05;;;;;;;0.27;0.20;;;;;;;;;;6092971;23;20169;-81
2024/03/24 13:31:33;;;;;;;0.20;0.20;;;;;;;;;;6094698;23;20666;-81
2024/03/24 13:34:03;;;;;;;0.20;0.20;;;;;;;;;;6073121;23;20171;-81
2024/03/24 13:36:43;;;;;;;0.20;0.20;;;;;;;;;;6097681;23;20178;-82
2024/03/24 13:39:15;;;;;;;1.23;0.10;;;;;;;;;;6098213;23;20645;-84
2024/03/24 13:41:49;;;;;;;0.30;0.10;;;;;;;;;;6074453;23;20202;-84
2024/03/24 13:44:36;;;;;;;1.57;0.30;;;;;;;;;;6074653;23;20185;-80
2024/03/24 13:47:14;;;;;;;0.10;0.10;;;;;;;;;;6097935;23;20198;-80
2024/03/24 13:49:43;;;;;;;0.20;0.10;;;;;;;;;;6098911;23;20665;-82
2024/03/24 13:52:10;;;;;;;0.10;0.10;;;;;;;;;;6098320;23;20172;-81
2024/03/24 13:54:36;;;;;;;0.10;0.10;;;;;;;;;;6098152;23;20252;-83
2024/03/24 13:57:03;;;;;;;0.30;0.17;;;;;;;;;;6097481;23;20176;-81
2024/03/24 13:59:29;;;;;;;0.20;0.10;;;;;;;;;;6098555;23;20183;-84
2024/03/24 14:01:56;;;;;;;0.10;0.10;;;;;;;;;;6074201;23;20186;-80
2024/03/24 14:04:26;;;;;;;1.50;0.10;;;;;;;;;;6098186;23;20203;-81
2024/03/24 14:06:52;;;;;;;0.10;0.03;;;;;;;;;;6097634;23;20174;-80
2024/03/24 14:09:18;;;;;;;0.57;0.20;;;;;;;;;;6097671;23;20246;-80
2024/03/24 14:11:44;;;;;;;0.50;0.10;;;;;;;;;;6097486;23;20287;-82
2024/03/24 14:14:26;;;;;;;0.10;0.10;;;;;;;;;;6097945;23;20170;-83
2024/03/24 14:17:06;;;;;;;0.20;0.20;;;;;;;;;;6097868;23;20175;-82
2024/03/24 14:19:43;;;;;;;0.17;0.10;;;;;;;;;;6097685;23;20168;-81
2024/03/24 14:22:19;;;;;;;0.13;0.10;;;;;;;;;;6098182;23;20156;-81
2024/03/24 14:24:58;;;;;;;0.10;0.10;;;;;;;;;;6097787;23;20199;-80
2024/03/24 14:27:26;;;;;;;0.23;0.20;;;;;;;;;;6098276;23;20261;-81
2024/03/24 14:29:54;;;;;;;0.40;0.10;;;;;;;;;;6097601;23;20188;-81
2024/03/24 14:32:21;;;;;;;1.00;0.10;;;;;;;;;;6092567;23;20215;-80
2024/03/24 14:34:47;;;;;;;0.37;0.20;;;;;;;;;;6092419;23;20165;-82
2024/03/24 14:37:19;;;;;;;0.20;0.20;;;;;;;;;;6067276;23;20183;-81
2024/03/24 14:39:49;;;;;;;0.20;0.20;;;;;;;;;;6092223;23;20188;-80
2024/03/24 14:42:25;;;;;;;0.33;0.20;;;;;;;;;;6092555;23;20172;-80
2024/03/24 14:45:10;;;;;;;0.10;0.10;;;;;;;;;;6092801;23;20178;-82
2024/03/24 14:47:45;;;;;;;0.20;0.20;;;;;;;;;;6092674;23;20183;-83